X  Cerrar Datos meteorológicos de aviación METAR     LEGR F.G.L. Airport Granada-Jaén Airport
Temperatura
33°C Temperatura
6°C Punto de rocío
18% Humedad



Viento
13 KM/H
8 MPH
4 M/S
7 NUDO



Calma
N
Condiciones actuales

Claro Claro
Presión 1013.88 (hPa) - 29.94 (inHg)
Visibilidad 6 (milla) - 9.7 (km)
Aeropuerto
Código de aeropuerto LEGR

localidad: F.G.L. Airport Granada-Jaén Airport
Distancia: 138 (km)

Metar:
LEGR 131130Z VRB07KT CAVOK 33/06 Q1014

Hora: 13-07-2024 13:30 CEST